Airport View

Enter AWOS ICAO identifier for current METAR.

ex. KFNL

KIWA 251035Z AUTO 11007KT 10SM CLR 18/06 A2981 RMK AO2 T01840061

25 Oct 2020 10:47

Frequency: 133.5

Phone: 480-988-9428

Other Area AWOS: KCHD - KFFZ - KPHX - KCGZ

TAF KIWA 250520Z 2506/2606 12007KT P6SM BKN200 FM251700 20010KT P6SM BKN150 FM252000 25013G23KT P6SM FEW100 FEW150 FM260300 22008KT P6SM SCT150 AMD LTD TO CLD VIS AND WIND TIL 251200